sensor_id;sensor_type;location;lat;lon;timestamp;pressure;altitude;pressure_sealevel;temperature;humidity
35918;BME280;22011;59.912;30.300;2023-03-03T00:00:06;99904.03;;;1.57;76.23
35918;BME280;22011;59.912;30.300;2023-03-03T00:02:40;99904.03;;;1.57;76.31
35918;BME280;22011;59.912;30.300;2023-03-03T00:05:09;99912.50;;;1.61;76.53
35918;BME280;22011;59.912;30.300;2023-03-03T00:07:42;99913.75;;;1.67;76.74
35918;BME280;22011;59.912;30.300;2023-03-03T00:10:11;99916.13;;;1.70;76.39
35918;BME280;22011;59.912;30.300;2023-03-03T00:12:45;99916.56;;;1.75;76.60
35918;BME280;22011;59.912;30.300;2023-03-03T00:15:14;99914.84;;;1.64;76.23
35918;BME280;22011;59.912;30.300;2023-03-03T00:17:42;99922.72;;;1.64;75.58
35918;BME280;22011;59.912;30.300;2023-03-03T00:20:34;99925.03;;;1.78;75.74
35918;BME280;22011;59.912;30.300;2023-03-03T00:23:34;99920.28;;;1.72;75.91
35918;BME280;22011;59.912;30.300;2023-03-03T00:26:14;99920.88;;;1.55;75.97
35918;BME280;22011;59.912;30.300;2023-03-03T00:28:44;99922.84;;;1.42;75.94
35918;BME280;22011;59.912;30.300;2023-03-03T00:31:16;99919.16;;;1.44;76.12
35918;BME280;22011;59.912;30.300;2023-03-03T00:33:47;99915.09;;;1.40;76.04
35918;BME280;22011;59.912;30.300;2023-03-03T00:36:28;99917.22;;;1.46;76.23
35918;BME280;22011;59.912;30.300;2023-03-03T00:39:16;99909.66;;;1.53;76.29
35918;BME280;22011;59.912;30.300;2023-03-03T00:41:44;99915.50;;;1.36;75.60
35918;BME280;22011;59.912;30.300;2023-03-03T00:44:31;99912.81;;;1.47;76.53
35918;BME280;22011;59.912;30.300;2023-03-03T00:47:26;99900.50;;;1.47;76.61
35918;BME280;22011;59.912;30.300;2023-03-03T00:50:13;99914.66;;;1.35;76.03
35918;BME280;22011;59.912;30.300;2023-03-03T00:52:52;99917.84;;;1.39;76.41
35918;BME280;22011;59.912;30.300;2023-03-03T00:55:22;99906.47;;;1.28;76.26
35918;BME280;22011;59.912;30.300;2023-03-03T00:57:49;99910.38;;;1.34;76.48
35918;BME280;22011;59.912;30.300;2023-03-03T01:00:20;99918.94;;;1.36;76.10
35918;BME280;22011;59.912;30.300;2023-03-03T01:02:48;99910.31;;;1.45;76.24
35918;BME280;22011;59.912;30.300;2023-03-03T01:05:17;99911.97;;;1.46;76.03
35918;BME280;22011;59.912;30.300;2023-03-03T01:07:46;99915.31;;;1.48;76.13
35918;BME280;22011;59.912;30.300;2023-03-03T01:10:14;99904.94;;;1.47;76.39
35918;BME280;22011;59.912;30.300;2023-03-03T01:12:41;99907.88;;;1.53;76.01
35918;BME280;22011;59.912;30.300;2023-03-03T01:15:10;99917.03;;;1.59;76.04
35918;BME280;22011;59.912;30.300;2023-03-03T01:17:38;99911.66;;;1.60;75.76
35918;BME280;22011;59.912;30.300;2023-03-03T01:20:07;99914.03;;;1.63;75.55
35918;BME280;22011;59.912;30.300;2023-03-03T01:22:35;99912.81;;;1.68;74.96
35918;BME280;22011;59.912;30.300;2023-03-03T01:25:05;99909.09;;;1.70;74.66
35918;BME280;22011;59.912;30.300;2023-03-03T01:27:34;99907.09;;;1.62;74.46
35918;BME280;22011;59.912;30.300;2023-03-03T01:30:02;99909.88;;;1.61;74.42
35918;BME280;22011;59.912;30.300;2023-03-03T01:32:30;99909.88;;;1.61;73.99
35918;BME280;22011;59.912;30.300;2023-03-03T01:34:57;99909.41;;;1.56;73.95
35918;BME280;22011;59.912;30.300;2023-03-03T01:37:25;99920.44;;;1.50;73.83
35918;BME280;22011;59.912;30.300;2023-03-03T01:39:53;99923.22;;;1.37;73.96
35918;BME280;22011;59.912;30.300;2023-03-03T01:42:22;99919.72;;;1.27;74.89
35918;BME280;22011;59.912;30.300;2023-03-03T01:45:12;99928.75;;;1.34;75.41
35918;BME280;22011;59.912;30.300;2023-03-03T01:47:44;99930.84;;;1.19;75.37
35918;BME280;22011;59.912;30.300;2023-03-03T01:50:19;99922.84;;;1.21;75.18
35918;BME280;22011;59.912;30.300;2023-03-03T01:52:53;99924.16;;;1.15;74.96
35918;BME280;22011;59.912;30.300;2023-03-03T01:55:23;99917.84;;;1.18;74.60
35918;BME280;22011;59.912;30.300;2023-03-03T01:57:54;99917.47;;;1.43;75.43
35918;BME280;22011;59.912;30.300;2023-03-03T02:00:25;99919.84;;;1.25;74.38
35918;BME280;22011;59.912;30.300;2023-03-03T02:02:53;99922.19;;;1.28;74.40
35918;BME280;22011;59.912;30.300;2023-03-03T02:05:22;99916.69;;;1.31;74.81
35918;BME280;22011;59.912;30.300;2023-03-03T02:07:50;99913.94;;;1.33;74.71
35918;BME280;22011;59.912;30.300;2023-03-03T02:10:20;99913.81;;;1.35;75.25
35918;BME280;22011;59.912;30.300;2023-03-03T02:12:50;99911.31;;;1.33;75.17
35918;BME280;22011;59.912;30.300;2023-03-03T02:15:22;99919.66;;;1.38;75.05
35918;BME280;22011;59.912;30.300;2023-03-03T02:17:52;99915.50;;;1.36;75.08
35918;BME280;22011;59.912;30.300;2023-03-03T02:20:25;99906.78;;;1.56;75.58
35918;BME280;22011;59.912;30.300;2023-03-03T02:22:58;99919.53;;;1.40;74.65
35918;BME280;22011;59.912;30.300;2023-03-03T02:25:38;99922.97;;;1.40;74.53
35918;BME280;22011;59.912;30.300;2023-03-03T02:28:09;99912.41;;;1.30;74.71
35918;BME280;22011;59.912;30.300;2023-03-03T02:30:37;99925.72;;;1.18;74.97
35918;BME280;22011;59.912;30.300;2023-03-03T02:33:05;99925.50;;;1.10;75.36
35918;BME280;22011;59.912;30.300;2023-03-03T02:35:35;99924.53;;;1.11;75.71
35918;BME280;22011;59.912;30.300;2023-03-03T02:38:11;99932.16;;;1.14;76.36
35918;BME280;22011;59.912;30.300;2023-03-03T02:40:44;99931.28;;;1.04;76.46
35918;BME280;22011;59.912;30.300;2023-03-03T02:43:19;99924.63;;;1.00;76.51
35918;BME280;22011;59.912;30.300;2023-03-03T02:45:49;99925.81;;;0.95;76.18
35918;BME280;22011;59.912;30.300;2023-03-03T02:48:17;99921.16;;;0.99;76.33
35918;BME280;22011;59.912;30.300;2023-03-03T02:50:44;99928.19;;;0.98;76.21
35918;BME280;22011;59.912;30.300;2023-03-03T02:53:12;99932.84;;;0.95;76.06
35918;BME280;22011;59.912;30.300;2023-03-03T02:55:40;99925.09;;;0.93;76.11
35918;BME280;22011;59.912;30.300;2023-03-03T02:58:07;99918.41;;;1.01;76.31
35918;BME280;22011;59.912;30.300;2023-03-03T03:00:36;99924.91;;;1.06;76.23
35918;BME280;22011;59.912;30.300;2023-03-03T03:03:04;99926.16;;;1.02;76.21
35918;BME280;22011;59.912;30.300;2023-03-03T03:05:32;99928.66;;;1.04;76.14
35918;BME280;22011;59.912;30.300;2023-03-03T03:08:00;99920.63;;;1.05;76.35
35918;BME280;22011;59.912;30.300;2023-03-03T03:10:30;99926.72;;;1.06;75.88
35918;BME280;22011;59.912;30.300;2023-03-03T03:12:57;99930.28;;;1.05;76.39
35918;BME280;22011;59.912;30.300;2023-03-03T03:15:25;99916.88;;;0.98;76.11
35918;BME280;22011;59.912;30.300;2023-03-03T03:17:54;99924.78;;;1.08;76.23
35918;BME280;22011;59.912;30.300;2023-03-03T03:20:22;99921.34;;;1.07;76.05
35918;BME280;22011;59.912;30.300;2023-03-03T03:22:49;99925.03;;;1.05;75.61
35918;BME280;22011;59.912;30.300;2023-03-03T03:25:17;99915.06;;;0.98;75.99
35918;BME280;22011;59.912;30.300;2023-03-03T03:27:44;99916.16;;;0.96;75.78
35918;BME280;22011;59.912;30.300;2023-03-03T03:30:13;99917.56;;;1.00;76.34
35918;BME280;22011;59.912;30.300;2023-03-03T03:32:41;99922.00;;;1.00;76.01
35918;BME280;22011;59.912;30.300;2023-03-03T03:35:10;99915.53;;;1.04;76.18
35918;BME280;22011;59.912;30.300;2023-03-03T03:37:38;99911.25;;;1.03;76.34
35918;BME280;22011;59.912;30.300;2023-03-03T03:40:06;99912.91;;;1.04;76.16
35918;BME280;22011;59.912;30.300;2023-03-03T03:42:34;99915.25;;;1.07;76.37
35918;BME280;22011;59.912;30.300;2023-03-03T03:45:04;99917.16;;;1.05;76.59
35918;BME280;22011;59.912;30.300;2023-03-03T03:47:32;99901.97;;;0.98;76.06
35918;BME280;22011;59.912;30.300;2023-03-03T03:50:00;99904.47;;;1.00;75.94
35918;BME280;22011;59.912;30.300;2023-03-03T03:52:29;99906.25;;;1.00;75.98
35918;BME280;22011;59.912;30.300;2023-03-03T03:54:56;99914.03;;;0.90;76.07
35918;BME280;22011;59.912;30.300;2023-03-03T03:57:24;99903.91;;;0.85;75.76
35918;BME280;22011;59.912;30.300;2023-03-03T03:59:52;99911.44;;;0.79;75.27
35918;BME280;22011;59.912;30.300;2023-03-03T04:02:19;99915.41;;;0.73;75.53
35918;BME280;22011;59.912;30.300;2023-03-03T04:04:47;99919.22;;;0.69;75.88
35918;BME280;22011;59.912;30.300;2023-03-03T04:07:14;99913.63;;;0.62;75.38
35918;BME280;22011;59.912;30.300;2023-03-03T04:09:43;99919.81;;;0.61;75.44
35918;BME280;22011;59.912;30.300;2023-03-03T04:12:12;99918.75;;;0.64;75.87
35918;BME280;22011;59.912;30.300;2023-03-03T04:14:39;99919.00;;;0.61;75.63
35918;BME280;22011;59.912;30.300;2023-03-03T04:17:07;99911.38;;;0.58;75.48
35918;BME280;22011;59.912;30.300;2023-03-03T04:19:35;99909.94;;;0.54;75.80
35918;BME280;22011;59.912;30.300;2023-03-03T04:22:04;99922.22;;;0.53;75.99
35918;BME280;22011;59.912;30.300;2023-03-03T04:24:33;99922.47;;;0.50;75.86
35918;BME280;22011;59.912;30.300;2023-03-03T04:27:03;99920.56;;;0.52;75.77
35918;BME280;22011;59.912;30.300;2023-03-03T04:29:30;99922.47;;;0.50;74.97
35918;BME280;22011;59.912;30.300;2023-03-03T04:31:58;99920.34;;;0.44;74.72
35918;BME280;22011;59.912;30.300;2023-03-03T04:34:26;99922.72;;;0.36;74.19
35918;BME280;22011;59.912;30.300;2023-03-03T04:36:54;99918.19;;;0.38;74.78
35918;BME280;22011;59.912;30.300;2023-03-03T04:39:22;99913.44;;;0.32;74.83
35918;BME280;22011;59.912;30.300;2023-03-03T04:41:49;99914.50;;;0.18;74.08
35918;BME280;22011;59.912;30.300;2023-03-03T04:44:19;99923.69;;;0.13;74.81
35918;BME280;22011;59.912;30.300;2023-03-03T04:46:48;99923.31;;;0.06;74.59
35918;BME280;22011;59.912;30.300;2023-03-03T04:49:16;99914.88;;;0.03;74.91
35918;BME280;22011;59.912;30.300;2023-03-03T04:51:44;99915.13;;;-0.01;74.89
35918;BME280;22011;59.912;30.300;2023-03-03T04:54:13;99918.09;;;0.06;75.35
35918;BME280;22011;59.912;30.300;2023-03-03T04:56:42;99923.91;;;0.10;75.52
35918;BME280;22011;59.912;30.300;2023-03-03T04:59:10;99926.41;;;0.11;75.19
35918;BME280;22011;59.912;30.300;2023-03-03T05:01:39;99917.13;;;0.18;75.24
35918;BME280;22011;59.912;30.300;2023-03-03T05:04:07;99926.53;;;0.21;75.37
35918;BME280;22011;59.912;30.300;2023-03-03T05:06:34;99922.38;;;0.18;75.23
35918;BME280;22011;59.912;30.300;2023-03-03T05:09:02;99920.00;;;0.15;75.37
35918;BME280;22011;59.912;30.300;2023-03-03T05:11:29;99922.38;;;0.18;75.73
35918;BME280;22011;59.912;30.300;2023-03-03T05:13:57;99921.19;;;0.22;75.86
35918;BME280;22011;59.912;30.300;2023-03-03T05:16:25;99921.91;;;0.24;75.96
35918;BME280;22011;59.912;30.300;2023-03-03T05:18:54;99926.06;;;0.27;76.12
35918;BME280;22011;59.912;30.300;2023-03-03T05:21:21;99925.00;;;0.29;76.27
35918;BME280;22011;59.912;30.300;2023-03-03T05:23:49;99924.16;;;0.29;76.14
35918;BME280;22011;59.912;30.300;2023-03-03T05:26:17;99930.81;;;0.33;76.23
35918;BME280;22011;59.912;30.300;2023-03-03T05:28:45;99931.53;;;0.35;76.30
35918;BME280;22011;59.912;30.300;2023-03-03T05:31:12;99927.47;;;0.42;76.54
35918;BME280;22011;59.912;30.300;2023-03-03T05:33:40;99929.75;;;0.47;76.58
35918;BME280;22011;59.912;30.300;2023-03-03T05:36:09;99929.38;;;0.51;76.45
35918;BME280;22011;59.912;30.300;2023-03-03T05:38:36;99931.88;;;0.53;76.18
35918;BME280;22011;59.912;30.300;2023-03-03T05:41:04;99929.97;;;0.55;76.30
35918;BME280;22011;59.912;30.300;2023-03-03T05:43:31;99940.31;;;0.56;76.19
35918;BME280;22011;59.912;30.300;2023-03-03T05:45:59;99942.94;;;0.56;76.05
35918;BME280;22011;59.912;30.300;2023-03-03T05:48:27;99944.75;;;0.56;75.58
35918;BME280;22011;59.912;30.300;2023-03-03T05:50:59;99942.00;;;0.57;75.71
35918;BME280;22011;59.912;30.300;2023-03-03T05:53:28;99950.09;;;0.54;75.58
35918;BME280;22011;59.912;30.300;2023-03-03T05:55:56;99951.88;;;0.54;75.35
35918;BME280;22011;59.912;30.300;2023-03-03T05:58:23;99948.31;;;0.55;75.40
35918;BME280;22011;59.912;30.300;2023-03-03T06:00:51;99948.69;;;0.50;75.21
35918;BME280;22011;59.912;30.300;2023-03-03T06:03:19;99950.22;;;0.53;75.18
35918;BME280;22011;59.912;30.300;2023-03-03T06:05:46;99946.19;;;0.49;74.83
35918;BME280;22011;59.912;30.300;2023-03-03T06:08:14;99945.81;;;0.42;74.99
35918;BME280;22011;59.912;30.300;2023-03-03T06:10:43;99952.72;;;0.43;75.22
35918;BME280;22011;59.912;30.300;2023-03-03T06:13:13;99948.56;;;0.41;74.79
35918;BME280;22011;59.912;30.300;2023-03-03T06:15:41;99953.31;;;0.47;74.80
35918;BME280;22011;59.912;30.300;2023-03-03T06:18:09;99953.09;;;0.50;74.92
35918;BME280;22011;59.912;30.300;2023-03-03T06:20:36;99956.06;;;0.45;74.32
35918;BME280;22011;59.912;30.300;2023-03-03T06:23:04;99956.91;;;0.46;74.43
35918;BME280;22011;59.912;30.300;2023-03-03T06:25:32;99963.56;;;0.50;74.66
35918;BME280;22011;59.912;30.300;2023-03-03T06:28:03;99958.09;;;0.53;74.72
35918;BME280;22011;59.912;30.300;2023-03-03T06:30:31;99958.44;;;0.48;74.83
35918;BME280;22011;59.912;30.300;2023-03-03T06:32:58;99953.56;;;0.44;75.09
35918;BME280;22011;59.912;30.300;2023-03-03T06:35:26;99954.53;;;0.43;75.38
35918;BME280;22011;59.912;30.300;2023-03-03T06:37:53;99956.91;;;0.46;75.66
35918;BME280;22011;59.912;30.300;2023-03-03T06:40:21;99953.81;;;0.41;75.18
35918;BME280;22011;59.912;30.300;2023-03-03T06:42:49;99956.31;;;0.42;75.38
35918;BME280;22011;59.912;30.300;2023-03-03T06:45:18;99960.47;;;0.45;75.67
35918;BME280;22011;59.912;30.300;2023-03-03T06:47:45;99962.50;;;0.41;75.66
35918;BME280;22011;59.912;30.300;2023-03-03T06:50:16;99962.84;;;0.59;76.03
35918;BME280;22011;59.912;30.300;2023-03-03T06:52:45;99973.09;;;0.62;75.52
35918;BME280;22011;59.912;30.300;2023-03-03T06:55:17;99966.03;;;0.74;75.59
35918;BME280;22011;59.912;30.300;2023-03-03T06:57:47;99970.56;;;0.72;75.35
35918;BME280;22011;59.912;30.300;2023-03-03T07:00:18;99970.69;;;0.81;75.49
35918;BME280;22011;59.912;30.300;2023-03-03T07:02:53;99967.06;;;0.93;75.65
35918;BME280;22011;59.912;30.300;2023-03-03T07:05:26;99968.25;;;1.01;75.42
35918;BME280;22011;59.912;30.300;2023-03-03T07:07:54;99960.44;;;1.10;74.96
35918;BME280;22011;59.912;30.300;2023-03-03T07:10:24;99973.91;;;1.17;74.58
35918;BME280;22011;59.912;30.300;2023-03-03T07:12:53;99968.28;;;1.21;74.79
35918;BME280;22011;59.912;30.300;2023-03-03T07:15:29;99967.16;;;1.35;75.02
35918;BME280;22011;59.912;30.300;2023-03-03T07:18:00;99970.03;;;1.32;74.71
35918;BME280;22011;59.912;30.300;2023-03-03T07:20:33;99959.72;;;1.40;74.42
35918;BME280;22011;59.912;30.300;2023-03-03T07:23:14;99966.84;;;1.49;74.76
35918;BME280;22011;59.912;30.300;2023-03-03T07:25:45;99966.56;;;1.31;73.86
35918;BME280;22011;59.912;30.300;2023-03-03T07:28:19;99961.78;;;1.37;74.33
35918;BME280;22011;59.912;30.300;2023-03-03T07:30:50;99964.31;;;1.27;74.05
35918;BME280;22011;59.912;30.300;2023-03-03T07:33:22;99963.72;;;1.23;73.93
35918;BME280;22011;59.912;30.300;2023-03-03T07:35:53;99966.22;;;1.25;74.52
35918;BME280;22011;59.912;30.300;2023-03-03T07:38:29;99967.16;;;1.35;74.85
35918;BME280;22011;59.912;30.300;2023-03-03T07:40:58;99959.91;;;1.27;74.42
35918;BME280;22011;59.912;30.300;2023-03-03T07:43:34;99962.22;;;1.42;74.93
35918;BME280;22011;59.912;30.300;2023-03-03T07:46:16;99965.50;;;1.55;75.25
35918;BME280;22011;59.912;30.300;2023-03-03T07:48:48;99963.25;;;1.50;74.74
35918;BME280;22011;59.912;30.300;2023-03-03T07:51:19;99963.59;;;1.57;74.91
35918;BME280;22011;59.912;30.300;2023-03-03T07:53:48;99969.53;;;1.59;74.37
35918;BME280;22011;59.912;30.300;2023-03-03T07:56:25;99971.41;;;1.68;74.51
35918;BME280;22011;59.912;30.300;2023-03-03T07:58:53;99967.03;;;1.57;74.35
35918;BME280;22011;59.912;30.300;2023-03-03T08:01:37;99971.72;;;1.75;75.31
35918;BME280;22011;59.912;30.300;2023-03-03T08:04:15;99973.41;;;1.76;75.48
35918;BME280;22011;59.912;30.300;2023-03-03T08:06:46;99971.28;;;1.70;75.08
35918;BME280;22011;59.912;30.300;2023-03-03T08:09:41;99961.41;;;1.83;75.77
35918;BME280;22011;59.912;30.300;2023-03-03T08:12:33;99959.56;;;1.74;75.30
35918;BME280;22011;59.912;30.300;2023-03-03T08:15:19;99961.41;;;1.62;75.44
35918;BME280;22011;59.912;30.300;2023-03-03T08:17:50;99964.34;;;1.48;74.97
35918;BME280;22011;59.912;30.300;2023-03-03T08:20:48;99969.16;;;1.63;75.57
35918;BME280;22011;59.912;30.300;2023-03-03T08:23:17;99968.50;;;1.50;75.19
35918;BME280;22011;59.912;30.300;2023-03-03T08:25:46;99972.81;;;1.51;75.18
35918;BME280;22011;59.912;30.300;2023-03-03T08:28:14;99973.38;;;1.55;75.44
35918;BME280;22011;59.912;30.300;2023-03-03T08:30:43;99973.25;;;1.56;75.00
35918;BME280;22011;59.912;30.300;2023-03-03T08:33:13;99960.00;;;1.58;75.33
35918;BME280;22011;59.912;30.300;2023-03-03T08:35:41;99963.97;;;1.52;75.48
35918;BME280;22011;59.912;30.300;2023-03-03T08:38:09;99963.84;;;1.54;75.77
35918;BME280;22011;59.912;30.300;2023-03-03T08:40:37;99963.84;;;1.54;75.08
35918;BME280;22011;59.912;30.300;2023-03-03T08:43:05;99974.47;;;1.52;75.56
35918;BME280;22011;59.912;30.300;2023-03-03T08:45:33;99962.13;;;1.64;75.13
35918;BME280;22011;59.912;30.300;2023-03-03T08:48:02;99966.16;;;1.68;74.71
35918;BME280;22011;59.912;30.300;2023-03-03T08:50:31;99961.59;;;1.70;74.30
35918;BME280;22011;59.912;30.300;2023-03-03T08:52:59;99961.22;;;1.75;74.51
35918;BME280;22011;59.912;30.300;2023-03-03T08:55:27;99967.31;;;1.75;73.97
35918;BME280;22011;59.912;30.300;2023-03-03T08:57:54;99955.06;;;1.85;74.21
35918;BME280;22011;59.912;30.300;2023-03-03T09:00:22;99956.59;;;1.88;73.46
35918;BME280;22011;59.912;30.300;2023-03-03T09:02:50;99959.81;;;1.91;73.23
35918;BME280;22011;59.912;30.300;2023-03-03T09:05:19;99962.50;;;2.01;73.08
35918;BME280;22011;59.912;30.300;2023-03-03T09:07:49;99961.28;;;2.05;72.79
35918;BME280;22011;59.912;30.300;2023-03-03T09:10:20;99961.13;;;2.07;71.93
35918;BME280;22011;59.912;30.300;2023-03-03T09:12:54;99958.78;;;2.04;71.77
35918;BME280;22011;59.912;30.300;2023-03-03T09:15:25;99960.00;;;2.09;71.82
35918;BME280;22011;59.912;30.300;2023-03-03T09:17:54;99969.44;;;2.12;71.90
35918;BME280;22011;59.912;30.300;2023-03-03T09:20:27;99955.47;;;2.42;73.06
35918;BME280;22011;59.912;30.300;2023-03-03T09:22:59;99958.00;;;2.22;71.11
35918;BME280;22011;59.912;30.300;2023-03-03T09:25:43;99953.59;;;2.23;70.68
35918;BME280;22011;59.912;30.300;2023-03-03T09:28:20;99956.44;;;2.41;71.81
35918;BME280;22011;59.912;30.300;2023-03-03T09:30:52;99960.97;;;2.39;71.40
35918;BME280;22011;59.912;30.300;2023-03-03T09:33:26;99948.53;;;2.41;70.51
35918;BME280;22011;59.912;30.300;2023-03-03T09:36:00;99946.59;;;2.43;70.74
35918;BME280;22011;59.912;30.300;2023-03-03T09:38:32;99945.91;;;2.41;70.38
35918;BME280;22011;59.912;30.300;2023-03-03T09:44:17;99945.72;;;2.63;70.93
35918;BME280;22011;59.912;30.300;2023-03-03T09:46:54;99944.00;;;2.52;70.19
35918;BME280;22011;59.912;30.300;2023-03-03T09:49:31;99940.66;;;2.41;70.13
35918;BME280;22011;59.912;30.300;2023-03-03T09:52:13;99943.19;;;2.52;70.28
35918;BME280;22011;59.912;30.300;2023-03-03T09:55:09;99945.16;;;2.69;70.82
35918;BME280;22011;59.912;30.300;2023-03-03T09:57:50;99942.69;;;2.68;70.28
35918;BME280;22011;59.912;30.300;2023-03-03T10:00:33;99941.84;;;2.67;69.51
35918;BME280;22011;59.912;30.300;2023-03-03T10:03:21;99940.47;;;2.73;69.64
35918;BME280;22011;59.912;30.300;2023-03-03T10:05:57;99931.44;;;2.66;69.41
35918;BME280;22011;59.912;30.300;2023-03-03T10:08:36;99937.97;;;2.71;70.03
35918;BME280;22011;59.912;30.300;2023-03-03T10:11:17;99935.50;;;2.79;70.53
35918;BME280;22011;59.912;30.300;2023-03-03T10:16:52;99934.50;;;2.71;69.09
35918;BME280;22011;59.912;30.300;2023-03-03T10:19:35;99929.38;;;2.69;69.36
35918;BME280;22011;59.912;30.300;2023-03-03T10:22:17;99935.06;;;2.65;69.68
35918;BME280;22011;59.912;30.300;2023-03-03T10:25:01;99930.75;;;2.63;69.70
35918;BME280;22011;59.912;30.300;2023-03-03T10:27:45;99927.16;;;2.65;69.67
35918;BME280;22011;59.912;30.300;2023-03-03T10:30:21;99932.56;;;2.63;69.08
35918;BME280;22011;59.912;30.300;2023-03-03T10:32:57;99930.22;;;2.70;68.40
35918;BME280;22011;59.912;30.300;2023-03-03T10:38:49;99934.66;;;2.79;68.37
35918;BME280;22011;59.912;30.300;2023-03-03T10:41:42;99923.88;;;2.91;68.57
35918;BME280;22011;59.912;30.300;2023-03-03T10:47:27;99928.59;;;2.98;68.32
35918;BME280;22011;59.912;30.300;2023-03-03T10:50:10;99929.16;;;2.91;67.27
35918;BME280;22011;59.912;30.300;2023-03-03T10:52:45;99929.13;;;2.82;66.57
35918;BME280;22011;59.912;30.300;2023-03-03T10:55:23;99936.50;;;2.88;66.68
35918;BME280;22011;59.912;30.300;2023-03-03T10:58:10;99933.84;;;2.88;66.25
35918;BME280;22011;59.912;30.300;2023-03-03T11:00:46;99931.22;;;2.88;66.61
35918;BME280;22011;59.912;30.300;2023-03-03T11:06:21;99918.91;;;2.98;65.80
35918;BME280;22011;59.912;30.300;2023-03-03T11:08:54;99922.09;;;2.92;65.66
35918;BME280;22011;59.912;30.300;2023-03-03T11:11:31;99913.09;;;2.94;65.98
35918;BME280;22011;59.912;30.300;2023-03-03T11:14:06;99917.25;;;2.87;66.04
35918;BME280;22011;59.912;30.300;2023-03-03T11:16:47;99914.47;;;2.99;66.20
35918;BME280;22011;59.912;30.300;2023-03-03T11:19:34;99910.19;;;3.07;66.04
35918;BME280;22011;59.912;30.300;2023-03-03T11:22:13;99908.13;;;3.11;65.27
35918;BME280;22011;59.912;30.300;2023-03-03T11:24:52;99902.28;;;3.17;64.63
35918;BME280;22011;59.912;30.300;2023-03-03T11:27:32;99897.28;;;3.23;64.80
35918;BME280;22011;59.912;30.300;2023-03-03T11:30:17;99897.13;;;3.25;65.14
35918;BME280;22011;59.912;30.300;2023-03-03T11:32:58;99886.34;;;3.18;64.29
35918;BME280;22011;59.912;30.300;2023-03-03T11:35:37;99891.31;;;3.21;64.40
35918;BME280;22011;59.912;30.300;2023-03-03T11:38:18;99887.88;;;3.21;64.09
35918;BME280;22011;59.912;30.300;2023-03-03T11:40:52;99878.19;;;3.12;63.99
35918;BME280;22011;59.912;30.300;2023-03-03T11:43:26;99873.47;;;3.15;63.53
35918;BME280;22011;59.912;30.300;2023-03-03T11:45:59;99872.63;;;3.15;63.49
35918;BME280;22011;59.912;30.300;2023-03-03T11:48:37;99866.25;;;3.17;63.38
35918;BME280;22011;59.912;30.300;2023-03-03T11:51:07;99869.88;;;3.07;62.37
35918;BME280;22011;59.912;30.300;2023-03-03T11:53:44;99871.28;;;3.11;63.08
35918;BME280;22011;59.912;30.300;2023-03-03T11:56:21;99872.66;;;3.05;62.46
35918;BME280;22011;59.912;30.300;2023-03-03T11:58:57;99867.41;;;3.05;62.77
35918;BME280;22011;59.912;30.300;2023-03-03T12:01:31;99869.34;;;3.03;62.07
35918;BME280;22011;59.912;30.300;2023-03-03T12:04:02;99866.00;;;3.11;62.63
35918;BME280;22011;59.912;30.300;2023-03-03T12:06:38;99876.63;;;3.19;62.67
35918;BME280;22011;59.912;30.300;2023-03-03T12:09:22;99865.69;;;3.23;62.80
35918;BME280;22011;59.912;30.300;2023-03-03T12:11:56;99869.72;;;3.18;62.37
35918;BME280;22011;59.912;30.300;2023-03-03T12:14:46;99855.16;;;3.33;62.45
35918;BME280;22011;59.912;30.300;2023-03-03T12:17:35;99856.25;;;3.31;62.40
35918;BME280;22011;59.912;30.300;2023-03-03T12:20:15;99853.78;;;3.29;62.30
35918;BME280;22011;59.912;30.300;2023-03-03T12:22:53;99855.44;;;3.30;62.70
35918;BME280;22011;59.912;30.300;2023-03-03T12:25:32;99860.00;;;3.28;62.30
35918;BME280;22011;59.912;30.300;2023-03-03T12:28:05;99855.44;;;3.20;62.40
35918;BME280;22011;59.912;30.300;2023-03-03T12:30:55;99849.91;;;3.23;63.77
35918;BME280;22011;59.912;30.300;2023-03-03T12:33:30;99849.19;;;3.31;63.89
35918;BME280;22011;59.912;30.300;2023-03-03T12:36:11;99853.53;;;3.03;64.06
35918;BME280;22011;59.912;30.300;2023-03-03T12:38:49;99844.97;;;3.01;64.94
35918;BME280;22011;59.912;30.300;2023-03-03T12:41:27;99839.41;;;2.94;64.81
35918;BME280;22011;59.912;30.300;2023-03-03T12:44:03;99843.28;;;2.90;65.00
35918;BME280;22011;59.912;30.300;2023-03-03T12:46:42;99836.09;;;2.92;65.36
35918;BME280;22011;59.912;30.300;2023-03-03T12:49:11;99839.13;;;2.78;64.97
35918;BME280;22011;59.912;30.300;2023-03-03T12:52:04;99837.75;;;2.93;65.71
35918;BME280;22011;59.912;30.300;2023-03-03T12:54:41;99835.25;;;2.82;65.62
35918;BME280;22011;59.912;30.300;2023-03-03T12:57:22;99829.84;;;2.74;65.83
35918;BME280;22011;59.912;30.300;2023-03-03T13:00:07;99826.25;;;2.75;65.92
35918;BME280;22011;59.912;30.300;2023-03-03T13:02:46;99829.84;;;2.65;66.21
35918;BME280;22011;59.912;30.300;2023-03-03T13:05:26;99830.25;;;2.60;65.71
35918;BME280;22011;59.912;30.300;2023-03-03T13:08:07;99821.97;;;2.65;66.96
35918;BME280;22011;59.912;30.300;2023-03-03T13:10:44;99822.50;;;2.58;66.82
35918;BME280;22011;59.912;30.300;2023-03-03T13:13:33;99825.56;;;2.63;67.16
35918;BME280;22011;59.912;30.300;2023-03-03T13:16:10;99822.91;;;2.54;67.02
35918;BME280;22011;59.912;30.300;2023-03-03T13:18:48;99824.59;;;2.55;67.52
35918;BME280;22011;59.912;30.300;2023-03-03T13:21:21;99823.59;;;2.46;68.00
35918;BME280;22011;59.912;30.300;2023-03-03T13:23:57;99816.94;;;2.42;67.88
35918;BME280;22011;59.912;30.300;2023-03-03T13:26:28;99819.03;;;2.39;68.14
35918;BME280;22011;59.912;30.300;2023-03-03T13:29:06;99818.34;;;2.46;68.08
35918;BME280;22011;59.912;30.300;2023-03-03T13:31:38;99819.44;;;2.44;67.27
35918;BME280;22011;59.912;30.300;2023-03-03T13:34:06;99803.41;;;2.66;67.61
35918;BME280;22011;59.912;30.300;2023-03-03T13:36:40;99810.31;;;2.48;66.88
35918;BME280;22011;59.912;30.300;2023-03-03T13:39:17;99813.94;;;2.56;66.90
35918;BME280;22011;59.912;30.300;2023-03-03T13:41:50;99810.59;;;2.45;66.48
35918;BME280;22011;59.912;30.300;2023-03-03T13:44:28;99813.34;;;2.34;66.37